createdAt,value
2017-08-28T00:02:06.283Z,22.10
2017-08-28T00:04:32.064Z,32.00
2017-08-28T00:06:57.870Z,27.33
2017-08-28T00:09:23.612Z,29.77
2017-08-28T00:11:49.394Z,29.17
2017-08-28T00:14:15.147Z,27.13
2017-08-28T00:16:40.896Z,32.10
2017-08-28T00:19:06.682Z,30.80
2017-08-28T00:21:32.480Z,30.67
2017-08-28T00:23:58.255Z,37.77
2017-08-28T00:26:23.995Z,27.37
2017-08-28T00:28:49.743Z,32.30
2017-08-28T00:31:15.523Z,29.03
2017-08-28T00:33:41.271Z,34.03
2017-08-28T00:36:07.023Z,26.67
2017-08-28T00:38:32.804Z,28.90
2017-08-28T00:40:58.575Z,29.60
2017-08-28T00:43:24.331Z,31.03
2017-08-28T00:45:50.107Z,35.40
2017-08-28T00:48:15.878Z,28.60
2017-08-28T00:50:41.659Z,33.23
2017-08-28T00:53:07.508Z,34.20
2017-08-28T00:55:33.261Z,34.20
2017-08-28T00:57:59.061Z,30.40
2017-08-28T01:00:24.861Z,27.40
2017-08-28T01:02:50.606Z,28.00
2017-08-28T01:05:16.375Z,34.37
2017-08-28T01:07:42.159Z,31.80
2017-08-28T01:10:07.956Z,29.83
2017-08-28T01:12:33.690Z,28.87
2017-08-28T01:14:59.447Z,31.83
2017-08-28T01:17:25.226Z,33.63
2017-08-28T01:19:50.974Z,34.00
2017-08-28T01:22:16.750Z,30.37
2017-08-28T01:24:42.499Z,33.03
2017-08-28T01:27:08.260Z,40.57
2017-08-28T01:29:34.032Z,31.50
2017-08-28T01:32:00.278Z,35.53
2017-08-28T01:34:26.075Z,33.80
2017-08-28T01:36:51.833Z,28.20
2017-08-28T01:39:17.592Z,31.60
2017-08-28T01:41:43.400Z,31.47
2017-08-28T01:44:09.147Z,40.93
2017-08-28T01:46:34.892Z,34.03
2017-08-28T01:49:00.673Z,29.33
2017-08-28T01:51:26.459Z,33.50
2017-08-28T01:53:52.190Z,28.90
2017-08-28T01:56:17.948Z,35.77
2017-08-28T01:58:43.863Z,32.63
2017-08-28T02:01:09.620Z,29.43
2017-08-28T02:03:35.396Z,30.97
2017-08-28T02:06:01.168Z,33.33
2017-08-28T02:08:27.016Z,39.23
2017-08-28T02:10:52.796Z,35.90
2017-08-28T02:13:18.551Z,34.10
2017-08-28T02:15:44.397Z,33.47
2017-08-28T02:18:10.179Z,29.87
2017-08-28T02:20:35.923Z,33.60
2017-08-28T02:23:01.686Z,28.23
2017-08-28T02:25:27.454Z,19.63
2017-08-28T02:27:53.219Z,24.67
2017-08-28T02:30:19.004Z,27.10
2017-08-28T02:32:44.754Z,30.50
2017-08-28T02:35:10.555Z,33.57
2017-08-28T02:37:36.299Z,31.80
2017-08-28T02:40:02.872Z,30.07
2017-08-28T02:42:28.644Z,33.17
2017-08-28T02:44:54.386Z,31.37
2017-08-28T02:47:20.265Z,41.27
2017-08-28T02:49:46.016Z,35.63
2017-08-28T02:52:11.765Z,28.73
2017-08-28T02:54:37.543Z,36.70
2017-08-28T02:57:03.296Z,32.93
2017-08-28T02:59:29.088Z,30.90
2017-08-28T03:01:54.867Z,29.63
2017-08-28T03:04:20.635Z,30.57
2017-08-28T03:06:46.413Z,28.30
2017-08-28T03:09:12.186Z,31.63
2017-08-28T03:11:37.935Z,38.00
2017-08-28T03:14:03.685Z,42.93
2017-08-28T03:16:29.454Z,36.23
2017-08-28T03:18:55.193Z,38.60
2017-08-28T03:21:20.944Z,30.87
2017-08-28T03:23:46.728Z,39.90
2017-08-28T03:26:12.464Z,38.93
2017-08-28T03:28:38.199Z,30.30
2017-08-28T03:31:03.950Z,41.00
2017-08-28T03:33:29.714Z,40.40
2017-08-28T03:35:55.499Z,40.17
2017-08-28T03:38:21.375Z,43.20
2017-08-28T03:40:47.353Z,46.63
2017-08-28T03:43:13.187Z,53.70
2017-08-28T03:45:38.980Z,43.33
2017-08-28T03:48:04.739Z,36.93
2017-08-28T03:50:30.535Z,46.33
2017-08-28T03:52:56.448Z,68.27
2017-08-28T03:55:22.211Z,105.57
2017-08-28T03:57:47.987Z,100.10
2017-08-28T04:00:13.795Z,71.23
2017-08-28T04:02:39.599Z,67.63
2017-08-28T04:05:05.360Z,80.13
2017-08-28T04:07:31.125Z,71.13
2017-08-28T04:09:56.936Z,69.30
2017-08-28T04:12:22.763Z,67.80
2017-08-28T04:14:48.524Z,64.90
2017-08-28T04:17:14.325Z,59.07
2017-08-28T04:19:40.094Z,64.80
2017-08-28T04:22:05.902Z,79.93
2017-08-28T04:24:31.668Z,69.93
2017-08-28T04:26:57.480Z,52.67
2017-08-28T04:29:23.259Z,62.53
2017-08-28T04:31:49.031Z,69.17
2017-08-28T04:34:14.792Z,157.00
2017-08-28T04:36:40.639Z,329.40
2017-08-28T04:39:06.430Z,102.10
2017-08-28T04:41:32.192Z,438.80
2017-08-28T04:43:57.944Z,115.87
2017-08-28T04:46:23.723Z,139.33
2017-08-28T04:48:49.467Z,94.70
2017-08-28T04:51:15.246Z,86.23
2017-08-28T04:53:41.066Z,82.90
2017-08-28T04:56:06.818Z,127.80
2017-08-28T04:58:32.647Z,100.37
2017-08-28T05:00:58.391Z,135.70
2017-08-28T05:03:24.138Z,100.07
2017-08-28T05:05:49.900Z,138.27
2017-08-28T05:08:15.710Z,533.23
2017-08-28T05:10:41.578Z,283.30
2017-08-28T05:13:07.372Z,315.20
2017-08-28T05:15:33.127Z,179.30
2017-08-28T05:17:58.911Z,329.63
2017-08-28T05:20:24.744Z,177.30
2017-08-28T05:22:50.539Z,159.00
2017-08-28T05:25:16.324Z,158.07
2017-08-28T05:27:42.070Z,173.57
2017-08-28T05:30:07.878Z,112.63
2017-08-28T05:32:33.632Z,97.37
2017-08-28T05:34:59.394Z,104.67
2017-08-28T05:37:25.182Z,84.73
2017-08-28T05:39:50.967Z,116.63
2017-08-28T05:42:16.710Z,130.60
2017-08-28T05:44:42.493Z,120.30
2017-08-28T05:47:08.277Z,163.87
2017-08-28T05:49:34.010Z,113.50
2017-08-28T05:51:59.750Z,295.87
2017-08-28T05:54:25.533Z,144.77
2017-08-28T05:56:51.292Z,110.87
2017-08-28T05:59:17.161Z,108.10
2017-08-28T06:01:42.927Z,97.03
2017-08-28T06:04:08.702Z,133.37
2017-08-28T06:06:34.456Z,233.83
2017-08-28T06:09:00.233Z,138.13
2017-08-28T06:11:25.979Z,192.20
2017-08-28T06:13:51.738Z,209.20
2017-08-28T06:16:17.515Z,77.60
2017-08-28T06:18:43.755Z,90.00
2017-08-28T06:21:09.526Z,68.60
2017-08-28T06:23:35.304Z,68.00
2017-08-28T06:26:01.076Z,82.30
2017-08-28T06:28:26.851Z,65.57
2017-08-28T06:30:52.642Z,79.80
2017-08-28T06:33:18.399Z,77.93
2017-08-28T06:35:44.152Z,57.50
2017-08-28T06:38:09.931Z,51.90
2017-08-28T06:40:35.715Z,83.77
2017-08-28T06:43:01.508Z,55.20
2017-08-28T06:45:27.261Z,63.97
2017-08-28T06:47:53.014Z,49.20
2017-08-28T06:50:18.794Z,48.00
2017-08-28T06:52:44.579Z,54.60
2017-08-28T06:55:10.315Z,55.40
2017-08-28T06:57:36.127Z,54.77
2017-08-28T07:00:01.892Z,54.20
2017-08-28T07:02:27.676Z,51.17
2017-08-28T07:04:53.484Z,46.37
2017-08-28T07:07:19.240Z,42.00
2017-08-28T07:09:45.023Z,48.30
2017-08-28T07:12:10.803Z,42.90
2017-08-28T07:14:36.562Z,39.70
2017-08-28T07:17:02.305Z,39.53
2017-08-28T07:19:28.098Z,36.33
2017-08-28T07:21:53.840Z,37.87
2017-08-28T07:24:19.607Z,32.83
2017-08-28T07:26:45.444Z,30.60
2017-08-28T07:29:11.205Z,30.90
2017-08-28T07:31:36.987Z,29.13
2017-08-28T07:34:02.803Z,34.80
2017-08-28T07:36:28.563Z,27.77
2017-08-28T07:38:54.307Z,25.97
2017-08-28T07:41:20.086Z,24.63
2017-08-28T07:43:45.843Z,22.57
2017-08-28T07:46:11.599Z,25.30
2017-08-28T07:48:37.450Z,27.23
2017-08-28T07:51:03.288Z,22.60
2017-08-28T07:53:29.025Z,25.73
2017-08-28T07:55:54.807Z,28.30
2017-08-28T07:58:20.569Z,24.50
2017-08-28T08:00:46.325Z,22.17
2017-08-28T08:03:12.105Z,23.97
2017-08-28T08:05:37.854Z,31.07
2017-08-28T08:08:03.634Z,20.90
2017-08-28T08:10:29.397Z,28.70
2017-08-28T08:12:55.151Z,35.93
2017-08-28T08:15:20.939Z,28.33
2017-08-28T08:17:46.687Z,41.13
2017-08-28T08:20:12.473Z,30.87
2017-08-28T08:22:38.236Z,42.37
2017-08-28T08:25:04.027Z,46.13
2017-08-28T08:27:29.799Z,39.70
2017-08-28T08:29:55.563Z,38.53
2017-08-28T08:32:21.371Z,34.23
2017-08-28T08:34:47.143Z,30.73
2017-08-28T08:37:12.908Z,26.77
2017-08-28T08:39:38.674Z,23.53
2017-08-28T08:42:04.475Z,22.83
2017-08-28T08:44:30.265Z,22.00
2017-08-28T08:46:56.023Z,18.53
2017-08-28T08:49:21.787Z,24.57
2017-08-28T08:51:47.539Z,18.10
2017-08-28T08:54:13.331Z,20.37
2017-08-28T08:56:39.094Z,19.90
2017-08-28T08:59:04.915Z,17.40
2017-08-28T09:01:30.691Z,24.17
2017-08-28T09:03:56.439Z,14.70
2017-08-28T09:06:22.222Z,16.50
2017-08-28T09:08:47.975Z,15.33
2017-08-28T09:11:13.718Z,14.63
2017-08-28T09:13:39.495Z,20.30
2017-08-28T09:16:05.231Z,18.23
2017-08-28T09:18:31.382Z,22.80
2017-08-28T09:20:57.124Z,14.87
2017-08-28T09:23:22.899Z,19.00
2017-08-28T09:25:48.665Z,19.67
2017-08-28T09:28:14.412Z,12.80
2017-08-28T09:30:40.196Z,12.47
2017-08-28T09:33:05.980Z,15.40
2017-08-28T09:35:31.736Z,21.37
2017-08-28T09:37:57.519Z,19.37
2017-08-28T09:40:23.296Z,16.67
2017-08-28T09:42:49.067Z,19.07
2017-08-28T09:45:14.859Z,15.73
2017-08-28T09:47:40.631Z,14.93
2017-08-28T09:50:06.370Z,23.13
2017-08-28T09:52:32.153Z,14.40
2017-08-28T09:54:57.966Z,13.00
2017-08-28T09:57:23.747Z,14.80
2017-08-28T09:59:49.531Z,17.00
2017-08-28T10:02:15.359Z,14.87
2017-08-28T10:04:41.138Z,19.67
2017-08-28T10:07:06.876Z,16.83
2017-08-28T10:09:32.663Z,15.70
2017-08-28T10:11:58.437Z,18.73
2017-08-28T10:14:24.203Z,15.37
2017-08-28T10:16:50.038Z,23.50
2017-08-28T10:19:15.806Z,13.33
2017-08-28T10:21:41.602Z,15.30
2017-08-28T10:24:07.338Z,18.20
2017-08-28T10:26:33.164Z,15.83
2017-08-28T10:28:58.991Z,15.93
2017-08-28T10:31:24.739Z,20.87
2017-08-28T10:33:50.511Z,24.47
2017-08-28T10:36:16.281Z,17.30
2017-08-28T10:38:42.031Z,13.80
2017-08-28T10:41:07.831Z,14.03
2017-08-28T10:43:33.592Z,20.03
2017-08-28T10:45:59.375Z,16.80
2017-08-28T10:48:25.141Z,17.37
2017-08-28T10:50:50.895Z,14.80
2017-08-28T10:53:16.653Z,13.97
2017-08-28T10:55:42.398Z,14.67
2017-08-28T10:58:08.213Z,14.77
2017-08-28T11:00:34.022Z,13.30
2017-08-28T11:02:59.779Z,19.23
2017-08-28T11:05:25.539Z,14.40
2017-08-28T11:07:51.302Z,20.10
2017-08-28T11:10:17.058Z,13.93
2017-08-28T11:12:42.838Z,13.40
2017-08-28T11:15:08.595Z,14.40
2017-08-28T11:17:34.344Z,18.93
2017-08-28T11:20:00.172Z,12.90
2017-08-28T11:22:25.931Z,19.37
2017-08-28T11:24:51.686Z,19.63
2017-08-28T11:27:17.455Z,19.00
2017-08-28T11:29:43.218Z,22.07
2017-08-28T11:32:08.959Z,20.13
2017-08-28T11:34:34.739Z,13.93
2017-08-28T11:37:00.484Z,14.47
2017-08-28T11:39:26.308Z,10.20
2017-08-28T11:41:52.060Z,10.43
2017-08-28T11:44:17.899Z,12.43
2017-08-28T11:46:43.655Z,11.00
2017-08-28T11:49:09.484Z,11.40
2017-08-28T11:51:35.231Z,11.77
2017-08-28T11:54:00.990Z,11.60
2017-08-28T11:56:26.763Z,9.80
2017-08-28T11:58:52.498Z,16.20
2017-08-28T12:01:18.291Z,11.37
2017-08-28T12:03:44.076Z,10.17
2017-08-28T12:06:09.835Z,10.80
2017-08-28T12:08:35.575Z,12.80
2017-08-28T12:11:01.377Z,15.43
2017-08-28T12:13:27.124Z,12.97
2017-08-28T12:15:52.944Z,11.03
2017-08-28T12:18:18.720Z,11.07
2017-08-28T12:20:44.497Z,7.97
2017-08-28T12:23:10.245Z,11.17
2017-08-28T12:25:36.047Z,13.33
2017-08-28T12:28:01.795Z,9.60
2017-08-28T12:30:27.559Z,10.30
2017-08-28T12:32:53.317Z,8.47
2017-08-28T12:35:19.086Z,10.20
2017-08-28T12:37:44.843Z,12.07
2017-08-28T12:40:10.632Z,8.03
2017-08-28T12:42:36.447Z,9.20
2017-08-28T12:45:02.278Z,10.47
2017-08-28T12:47:28.053Z,9.07
2017-08-28T12:49:53.798Z,8.30
2017-08-28T12:52:19.675Z,10.10
2017-08-28T12:54:46.361Z,8.73
2017-08-28T12:57:12.216Z,10.70
2017-08-28T12:59:38.070Z,12.53
2017-08-28T13:02:03.829Z,8.30
2017-08-28T13:04:29.684Z,12.10
2017-08-28T13:06:55.688Z,9.23
2017-08-28T13:09:21.440Z,10.63
2017-08-28T13:11:47.203Z,9.83
2017-08-28T13:14:13.028Z,9.47
2017-08-28T13:16:38.803Z,12.47
2017-08-28T13:19:04.589Z,7.30
2017-08-28T13:21:30.334Z,7.93
2017-08-28T13:23:56.210Z,12.63
2017-08-28T13:26:21.969Z,7.47
2017-08-28T13:28:47.725Z,9.30
2017-08-28T13:31:13.528Z,18.63
2017-08-28T13:33:39.268Z,8.13
2017-08-28T13:36:05.047Z,8.07
2017-08-28T13:38:30.821Z,7.77
2017-08-28T13:40:56.579Z,10.77
2017-08-28T13:43:22.355Z,12.17
2017-08-28T13:45:48.147Z,12.20
2017-08-28T13:48:13.931Z,7.83
2017-08-28T13:50:39.683Z,17.57
2017-08-28T13:53:05.454Z,8.17
2017-08-28T13:55:31.238Z,9.80
2017-08-28T13:57:57.019Z,11.00
2017-08-28T14:00:22.792Z,8.17
2017-08-28T14:02:48.552Z,7.90
2017-08-28T14:05:14.322Z,6.90
2017-08-28T14:07:46.272Z,7.00
2017-08-28T14:10:12.103Z,8.20
2017-08-28T14:12:37.866Z,10.00
2017-08-28T14:15:03.648Z,9.67
2017-08-28T14:17:29.409Z,7.63
2017-08-28T14:19:55.153Z,7.20
2017-08-28T14:22:20.935Z,6.43
2017-08-28T14:24:46.682Z,10.03
2017-08-28T14:27:12.479Z,7.27
2017-08-28T14:29:38.223Z,7.57
2017-08-28T14:32:03.990Z,5.77
2017-08-28T14:34:29.850Z,6.80
2017-08-28T14:36:55.596Z,8.97
2017-08-28T14:39:21.370Z,6.67
2017-08-28T14:41:47.139Z,5.60
2017-08-28T14:44:12.923Z,12.37
2017-08-28T14:46:38.675Z,7.70
2017-08-28T14:49:04.443Z,4.90
2017-08-28T14:51:30.235Z,7.20
2017-08-28T14:53:55.985Z,59.07
2017-08-28T14:56:21.727Z,9.03
2017-08-28T14:58:47.602Z,9.77
2017-08-28T15:01:13.371Z,6.90
2017-08-28T15:03:39.168Z,6.30
2017-08-28T15:06:04.952Z,5.83
2017-08-28T15:08:30.834Z,7.30
2017-08-28T15:10:56.588Z,8.13
2017-08-28T15:13:22.345Z,13.37
2017-08-28T15:15:48.188Z,6.43
2017-08-28T15:18:13.963Z,7.87
2017-08-28T15:20:39.799Z,9.20
2017-08-28T15:23:05.575Z,8.50
2017-08-28T15:25:31.347Z,6.33
2017-08-28T15:27:57.143Z,5.03
2017-08-28T15:30:22.993Z,6.60
2017-08-28T15:32:48.763Z,5.03
2017-08-28T15:35:14.563Z,6.30
2017-08-28T15:37:40.393Z,14.73
2017-08-28T15:40:06.198Z,9.43
2017-08-28T15:42:32.068Z,6.90
2017-08-28T15:44:57.816Z,5.37
2017-08-28T15:47:23.572Z,7.00
2017-08-28T15:49:49.422Z,9.50
2017-08-28T15:52:15.215Z,10.50
2017-08-28T15:54:41.038Z,13.63
2017-08-28T15:57:06.915Z,6.27
2017-08-28T15:59:32.659Z,8.90
2017-08-28T16:01:58.415Z,5.00
2017-08-28T16:04:24.199Z,4.60
2017-08-28T16:06:49.957Z,4.90
2017-08-28T16:09:15.706Z,6.00
2017-08-28T16:11:41.489Z,5.20
2017-08-28T16:14:07.329Z,20.20
2017-08-28T16:16:33.084Z,15.13
2017-08-28T16:18:58.868Z,7.13
2017-08-28T16:21:24.627Z,9.10
2017-08-28T16:23:50.454Z,8.30
2017-08-28T16:26:16.218Z,7.43
2017-08-28T16:28:41.982Z,10.53
2017-08-28T16:31:07.765Z,6.40
2017-08-28T16:33:33.527Z,5.90
2017-08-28T16:35:59.314Z,5.27
2017-08-28T16:38:25.099Z,6.60
2017-08-28T16:40:50.847Z,8.53
2017-08-28T16:43:16.644Z,7.07
2017-08-28T16:45:42.396Z,6.60
2017-08-28T16:48:08.131Z,8.93
2017-08-28T16:50:33.899Z,5.73
2017-08-28T16:52:59.665Z,15.13
2017-08-28T16:55:25.463Z,43.60
2017-08-28T16:57:51.260Z,161.97
2017-08-28T17:00:17.015Z,8.17
2017-08-28T17:02:42.882Z,10.97
2017-08-28T17:05:08.696Z,6.00
2017-08-28T17:07:34.465Z,14.17
2017-08-28T17:10:00.298Z,10.90
2017-08-28T17:12:26.082Z,7.00
2017-08-28T17:14:52.035Z,10.00
2017-08-28T17:17:18.804Z,8.10
2017-08-28T17:19:46.673Z,9.83
2017-08-28T17:22:13.394Z,9.60
2017-08-28T17:24:40.194Z,8.77
2017-08-28T17:27:06.893Z,14.33
2017-08-28T17:29:33.746Z,11.17
2017-08-28T17:32:00.561Z,15.30
2017-08-28T17:34:27.346Z,10.00
2017-08-28T17:36:53.943Z,10.90
2017-08-28T17:39:20.767Z,12.57
2017-08-28T17:41:46.924Z,11.47
2017-08-28T17:44:12.740Z,10.10
2017-08-28T17:46:38.524Z,17.63
2017-08-28T17:49:04.350Z,8.60
2017-08-28T17:51:30.094Z,11.50
2017-08-28T17:53:55.848Z,6.63
2017-08-28T17:56:21.666Z,11.23
2017-08-28T17:58:47.411Z,12.07
2017-08-28T18:01:13.169Z,8.47
2017-08-28T18:03:39.253Z,13.50
2017-08-28T18:06:05.024Z,14.53
2017-08-28T18:08:30.787Z,20.63
2017-08-28T18:10:56.747Z,313.77
2017-08-28T18:13:23.485Z,130.20
2017-08-28T18:15:50.267Z,15.93
2017-08-28T18:18:16.767Z,9.57
2017-08-28T18:20:43.421Z,14.37
2017-08-28T18:23:10.007Z,8.20
2017-08-28T18:25:36.638Z,11.40
2017-08-28T18:28:03.181Z,8.00
2017-08-28T18:30:29.788Z,14.60
2017-08-28T18:32:56.280Z,12.27
2017-08-28T18:35:22.836Z,9.10
2017-08-28T18:37:49.687Z,9.40
2017-08-28T18:40:16.336Z,11.40
2017-08-28T18:42:42.752Z,9.20
2017-08-28T18:45:08.600Z,9.37
2017-08-28T18:47:34.383Z,11.90
2017-08-28T18:50:00.219Z,10.43
2017-08-28T18:52:25.970Z,11.00
2017-08-28T18:54:52.409Z,13.17
2017-08-28T18:57:18.215Z,9.80
2017-08-28T18:59:44.038Z,7.93
2017-08-28T19:02:09.784Z,10.73
2017-08-28T19:04:35.604Z,18.50
2017-08-28T19:07:01.362Z,14.73
2017-08-28T19:09:27.135Z,10.63
2017-08-28T19:11:52.935Z,9.97
2017-08-28T19:14:18.727Z,11.40
2017-08-28T19:16:44.499Z,8.97
2017-08-28T19:19:10.275Z,9.70
2017-08-28T19:21:36.106Z,21.07
2017-08-28T19:24:02.689Z,11.73
2017-08-28T19:26:28.515Z,11.10
2017-08-28T19:28:54.297Z,18.77
2017-08-28T19:31:20.079Z,21.23
2017-08-28T19:33:47.799Z,16.63
2017-08-28T19:36:13.584Z,14.90
2017-08-28T19:38:40.357Z,14.17
2017-08-28T19:41:06.122Z,12.50
2017-08-28T19:43:31.884Z,14.70
2017-08-28T19:45:57.671Z,11.50
2017-08-28T19:48:23.427Z,11.83
2017-08-28T19:50:49.175Z,11.67
2017-08-28T19:53:14.959Z,11.40
2017-08-28T19:55:40.747Z,12.07
2017-08-28T19:58:06.623Z,13.33
2017-08-28T20:00:32.367Z,14.70
2017-08-28T20:02:58.140Z,12.77
2017-08-28T20:05:23.928Z,12.80
2017-08-28T20:07:49.690Z,9.90
2017-08-28T20:10:15.462Z,18.40
2017-08-28T20:12:41.211Z,12.10
2017-08-28T20:15:07.032Z,17.13
2017-08-28T20:17:32.873Z,18.43
2017-08-28T20:19:58.637Z,15.63
2017-08-28T20:22:24.442Z,11.70
2017-08-28T20:24:50.190Z,13.67
2017-08-28T20:27:15.975Z,10.37
2017-08-28T20:29:41.768Z,14.63
2017-08-28T20:32:07.516Z,11.50
2017-08-28T20:34:33.263Z,12.40
2017-08-28T20:36:59.044Z,23.23
2017-08-28T20:39:24.791Z,13.93
2017-08-28T20:41:50.630Z,26.97
2017-08-28T20:44:16.418Z,15.03
2017-08-28T20:46:42.168Z,17.60
2017-08-28T20:49:08.007Z,20.63
2017-08-28T20:51:33.803Z,16.40
2017-08-28T20:53:59.559Z,14.53
2017-08-28T20:56:25.325Z,28.23
2017-08-28T20:58:51.102Z,21.60
2017-08-28T21:01:16.855Z,26.40
2017-08-28T21:03:42.618Z,21.90
2017-08-28T21:06:08.376Z,19.37
2017-08-28T21:08:34.136Z,14.27
2017-08-28T21:10:59.923Z,13.53
2017-08-28T21:13:25.666Z,24.23
2017-08-28T21:15:51.475Z,16.03
2017-08-28T21:18:17.273Z,18.97
2017-08-28T21:20:43.019Z,19.23
2017-08-28T21:23:08.783Z,19.00
2017-08-28T21:25:34.651Z,20.03
2017-08-28T21:28:00.444Z,15.67
2017-08-28T21:30:26.218Z,17.30
2017-08-28T21:32:52.019Z,17.00
2017-08-28T21:35:17.806Z,19.87
2017-08-28T21:37:43.538Z,21.33
2017-08-28T21:40:09.294Z,13.87
2017-08-28T21:42:35.051Z,25.27
2017-08-28T21:45:00.852Z,16.73
2017-08-28T21:47:26.636Z,18.00
2017-08-28T21:49:52.387Z,15.47
2017-08-28T21:52:18.140Z,15.97
2017-08-28T21:54:43.954Z,14.00
2017-08-28T21:57:09.723Z,14.47
2017-08-28T21:59:35.484Z,17.40
2017-08-28T22:02:01.271Z,14.47
2017-08-28T22:04:27.020Z,16.47
2017-08-28T22:06:52.799Z,17.03
2017-08-28T22:09:18.575Z,12.27
2017-08-28T22:11:44.323Z,16.33
2017-08-28T22:14:10.128Z,28.57
2017-08-28T22:16:35.903Z,21.10
2017-08-28T22:19:01.700Z,19.00
2017-08-28T22:21:27.451Z,12.33
2017-08-28T22:23:53.192Z,15.07
2017-08-28T22:26:19.053Z,17.03
2017-08-28T22:28:44.803Z,21.23
2017-08-28T22:31:10.584Z,18.07
2017-08-28T22:33:36.346Z,16.60
2017-08-28T22:36:02.106Z,19.30
2017-08-28T22:38:27.978Z,26.00
2017-08-28T22:40:53.760Z,16.53
2017-08-28T22:43:19.535Z,26.53
2017-08-28T22:45:45.279Z,22.03
2017-08-28T22:48:11.053Z,16.10
2017-08-28T22:50:36.811Z,18.07
2017-08-28T22:53:02.601Z,15.67
2017-08-28T22:55:28.359Z,19.23
2017-08-28T22:57:54.107Z,15.57
2017-08-28T23:00:19.887Z,16.27
2017-08-28T23:02:45.664Z,18.57
2017-08-28T23:05:11.408Z,19.77
2017-08-28T23:07:37.183Z,19.87
2017-08-28T23:10:02.952Z,21.43
2017-08-28T23:12:28.698Z,22.93
2017-08-28T23:14:54.491Z,22.60
2017-08-28T23:17:20.234Z,20.63
2017-08-28T23:19:46.035Z,14.83
2017-08-28T23:22:11.781Z,16.63
2017-08-28T23:24:37.618Z,13.70
2017-08-28T23:27:03.402Z,19.03
2017-08-28T23:29:29.147Z,19.23
2017-08-28T23:31:54.900Z,17.13
2017-08-28T23:34:20.755Z,22.27
2017-08-28T23:36:46.500Z,16.80
2017-08-28T23:39:12.241Z,15.40
2017-08-28T23:41:38.014Z,20.43
2017-08-28T23:44:03.783Z,15.90
2017-08-28T23:46:29.561Z,21.03
2017-08-28T23:48:55.319Z,17.00
2017-08-28T23:51:21.068Z,16.40
2017-08-28T23:53:46.833Z,15.70
2017-08-28T23:56:12.583Z,19.80
2017-08-28T23:58:38.325Z,15.87
